createdAt,value
2023-05-02T00:00:04.539Z,993.70
2023-05-02T00:01:04.337Z,993.73
2023-05-02T00:02:04.397Z,993.72
2023-05-02T00:03:04.364Z,993.77
2023-05-02T00:04:04.379Z,993.74
2023-05-02T00:05:04.424Z,993.78
2023-05-02T00:06:04.296Z,993.75
2023-05-02T00:07:04.298Z,993.78
2023-05-02T00:08:04.267Z,993.72
2023-05-02T00:09:04.264Z,993.72
2023-05-02T00:10:04.316Z,993.72
2023-05-02T00:11:04.258Z,993.74
2023-05-02T00:12:04.273Z,993.71
2023-05-02T00:13:04.232Z,993.71
2023-05-02T00:14:04.216Z,993.75
2023-05-02T00:15:04.246Z,993.72
2023-05-02T00:16:04.215Z,993.74
2023-05-02T00:17:04.306Z,993.65
2023-05-02T00:18:04.235Z,993.66
2023-05-02T00:19:04.267Z,993.70
2023-05-02T00:20:04.234Z,993.70
2023-05-02T00:21:04.200Z,993.72
2023-05-02T00:22:04.190Z,993.64
2023-05-02T00:23:04.151Z,993.66
2023-05-02T00:24:04.149Z,993.68
2023-05-02T00:25:04.141Z,993.68
2023-05-02T00:26:04.174Z,993.72
2023-05-02T00:27:04.112Z,993.69
2023-05-02T00:28:04.121Z,993.72
2023-05-02T00:29:04.104Z,993.69
2023-05-02T00:30:04.109Z,993.69
2023-05-02T00:31:04.181Z,993.72
2023-05-02T00:32:04.139Z,993.71
2023-05-02T00:33:04.134Z,993.69
2023-05-02T00:34:04.071Z,993.70
2023-05-02T00:35:04.078Z,993.71
2023-05-02T00:36:04.094Z,993.69
2023-05-02T00:37:04.071Z,993.69
2023-05-02T00:38:04.044Z,993.76
2023-05-02T00:39:04.045Z,993.74
2023-05-02T00:40:04.040Z,993.79
2023-05-02T00:41:04.014Z,993.77
2023-05-02T00:42:04.058Z,993.73
2023-05-02T00:43:04.045Z,993.78
2023-05-02T00:44:04.012Z,993.73
2023-05-02T00:45:03.996Z,993.77
2023-05-02T00:46:04.005Z,993.75
2023-05-02T00:47:03.987Z,993.73
2023-05-02T00:48:04.055Z,993.74
2023-05-02T00:49:03.965Z,993.76
2023-05-02T00:50:03.954Z,993.67
2023-05-02T00:51:03.947Z,993.71
2023-05-02T00:52:04.001Z,993.69
2023-05-02T00:53:03.928Z,993.78
2023-05-02T00:54:03.961Z,993.73
2023-05-02T00:55:03.923Z,993.71
2023-05-02T00:56:03.912Z,993.78
2023-05-02T00:57:03.903Z,993.72
2023-05-02T00:58:03.944Z,993.70
2023-05-02T00:59:03.943Z,993.76
2023-05-02T01:00:04.077Z,993.76
2023-05-02T01:01:03.893Z,993.74
2023-05-02T01:02:04.055Z,993.75
2023-05-02T01:03:04.041Z,993.78
2023-05-02T01:04:04.170Z,993.77
2023-05-02T01:05:03.850Z,993.87
2023-05-02T01:06:03.918Z,993.79
2023-05-02T01:07:03.822Z,993.77
2023-05-02T01:08:03.821Z,993.80
2023-05-02T01:09:03.838Z,993.82
2023-05-02T01:10:03.796Z,993.83
2023-05-02T01:11:03.833Z,993.84
2023-05-02T01:12:03.795Z,993.86
2023-05-02T01:13:03.809Z,993.81
2023-05-02T01:14:03.799Z,993.83
2023-05-02T01:15:03.773Z,993.87
2023-05-02T01:16:03.842Z,993.91
2023-05-02T01:17:03.754Z,993.87
2023-05-02T01:18:03.817Z,993.88
2023-05-02T01:19:03.916Z,993.95
2023-05-02T01:20:03.804Z,994.00
2023-05-02T01:21:03.762Z,993.94
2023-05-02T01:22:03.717Z,993.93
2023-05-02T01:23:03.702Z,994.00
2023-05-02T01:24:03.683Z,994.03
2023-05-02T01:25:03.716Z,994.01
2023-05-02T01:26:03.725Z,994.01
2023-05-02T01:27:03.687Z,993.99
2023-05-02T01:28:03.678Z,993.99
2023-05-02T01:29:03.678Z,993.99
2023-05-02T01:30:03.654Z,994.04
2023-05-02T01:31:03.680Z,993.97
2023-05-02T01:32:03.758Z,994.04
2023-05-02T01:33:03.671Z,994.06
2023-05-02T01:34:03.667Z,994.01
2023-05-02T01:35:03.660Z,994.00
2023-05-02T01:36:03.660Z,994.00
2023-05-02T01:37:03.644Z,994.00
2023-05-02T01:38:03.606Z,994.03
2023-05-02T01:39:03.596Z,994.00
2023-05-02T01:40:03.597Z,994.02
2023-05-02T01:41:03.599Z,994.01
2023-05-02T01:42:03.603Z,994.03
2023-05-02T01:43:03.568Z,994.04
2023-05-02T01:44:03.580Z,994.03
2023-05-02T01:45:03.567Z,994.01
2023-05-02T01:46:03.561Z,994.03
2023-05-02T01:47:03.713Z,993.93
2023-05-02T01:48:03.584Z,994.05
2023-05-02T01:49:03.537Z,994.02
2023-05-02T01:50:03.512Z,994.04
2023-05-02T01:51:03.551Z,994.03
2023-05-02T01:52:03.558Z,994.07
2023-05-02T01:53:03.534Z,994.05
2023-05-02T01:54:03.538Z,994.06
2023-05-02T01:55:03.516Z,994.11
2023-05-02T01:56:03.488Z,994.10
2023-05-02T01:57:03.492Z,994.07
2023-05-02T01:58:03.484Z,994.08
2023-05-02T01:59:03.520Z,994.12
2023-05-02T02:00:04.044Z,994.14
2023-05-02T02:01:04.992Z,994.19
2023-05-02T02:02:03.482Z,994.12
2023-05-02T02:03:03.480Z,994.18
2023-05-02T02:04:03.545Z,994.17
2023-05-02T02:05:03.421Z,994.16
2023-05-02T02:06:03.486Z,994.16
2023-05-02T02:07:03.464Z,994.15
2023-05-02T02:08:03.434Z,994.15
2023-05-02T02:09:03.407Z,994.14
2023-05-02T02:10:03.450Z,994.15
2023-05-02T02:11:03.385Z,994.17
2023-05-02T02:12:03.420Z,994.13
2023-05-02T02:13:03.429Z,994.15
2023-05-02T02:14:03.388Z,994.17
2023-05-02T02:15:03.351Z,994.12
2023-05-02T02:16:03.321Z,994.13
2023-05-02T02:17:03.494Z,994.16
2023-05-02T02:18:03.345Z,994.14
2023-05-02T02:19:03.347Z,994.13
2023-05-02T02:20:03.315Z,994.13
2023-05-02T02:21:03.305Z,994.16
2023-05-02T02:22:03.330Z,994.13
2023-05-02T02:23:03.330Z,994.11
2023-05-02T02:24:03.285Z,994.12
2023-05-02T02:25:03.280Z,994.18
2023-05-02T02:26:03.319Z,994.17
2023-05-02T02:27:03.264Z,994.18
2023-05-02T02:28:03.284Z,994.22
2023-05-02T02:29:03.270Z,994.19
2023-05-02T02:30:03.348Z,994.24
2023-05-02T02:31:03.322Z,994.25
2023-05-02T02:32:03.240Z,994.24
2023-05-02T02:33:03.307Z,994.30
2023-05-02T02:34:03.251Z,994.27
2023-05-02T02:35:03.225Z,994.32
2023-05-02T02:36:03.243Z,994.34
2023-05-02T02:37:03.213Z,994.31
2023-05-02T02:38:03.209Z,994.34
2023-05-02T02:39:03.178Z,994.34
2023-05-02T02:40:03.335Z,994.37
2023-05-02T02:41:03.201Z,994.39
2023-05-02T02:42:03.158Z,994.37
2023-05-02T02:43:03.217Z,994.34
2023-05-02T02:44:03.155Z,994.38
2023-05-02T02:45:03.155Z,994.37
2023-05-02T02:46:03.202Z,994.38
2023-05-02T02:47:03.145Z,994.41
2023-05-02T02:48:03.163Z,994.39
2023-05-02T02:49:03.151Z,994.45
2023-05-02T02:50:03.114Z,994.48
2023-05-02T02:51:03.126Z,994.47
2023-05-02T02:52:03.147Z,994.47
2023-05-02T02:53:03.109Z,994.51
2023-05-02T02:54:05.925Z,994.48
2023-05-02T02:55:05.076Z,994.49
2023-05-02T02:56:03.062Z,994.51
2023-05-02T02:57:03.052Z,994.52
2023-05-02T02:58:03.137Z,994.51
2023-05-02T02:59:03.069Z,994.57
2023-05-02T03:00:03.177Z,994.60
2023-05-02T03:01:03.020Z,994.57
2023-05-02T03:02:03.195Z,994.64
2023-05-02T03:03:03.084Z,994.68
2023-05-02T03:04:03.057Z,994.68
2023-05-02T03:05:03.070Z,994.69
2023-05-02T03:06:03.084Z,994.74
2023-05-02T03:07:02.991Z,994.74
2023-05-02T03:08:02.982Z,994.73
2023-05-02T03:09:02.982Z,994.72
2023-05-02T03:10:03.230Z,994.83
2023-05-02T03:11:02.995Z,994.81
2023-05-02T03:12:02.958Z,994.81
2023-05-02T03:13:02.997Z,994.93
2023-05-02T03:14:02.939Z,994.93
2023-05-02T03:15:03.006Z,994.92
2023-05-02T03:16:03.113Z,994.94
2023-05-02T03:17:02.965Z,994.92
2023-05-02T03:18:02.965Z,994.92
2023-05-02T03:19:02.922Z,994.93
2023-05-02T03:20:02.928Z,994.95
2023-05-02T03:21:02.937Z,994.95
2023-05-02T03:22:02.899Z,994.93
2023-05-02T03:23:02.941Z,994.94
2023-05-02T03:24:02.900Z,994.91
2023-05-02T03:25:02.888Z,995.00
2023-05-02T03:26:02.920Z,994.95
2023-05-02T03:27:02.859Z,994.94
2023-05-02T03:28:02.923Z,994.93
2023-05-02T03:29:02.871Z,994.96
2023-05-02T03:30:02.963Z,994.97
2023-05-02T03:31:02.916Z,994.98
2023-05-02T03:32:03.034Z,994.99
2023-05-02T03:33:02.902Z,994.95
2023-05-02T03:34:02.805Z,995.01
2023-05-02T03:35:02.818Z,995.00
2023-05-02T03:36:02.808Z,995.07
2023-05-02T03:37:02.841Z,995.06
2023-05-02T03:38:02.828Z,995.12
2023-05-02T03:39:02.791Z,995.07
2023-05-02T03:40:02.936Z,995.09
2023-05-02T03:41:02.781Z,995.13
2023-05-02T03:42:02.790Z,995.15
2023-05-02T03:43:02.780Z,995.12
2023-05-02T03:44:03.759Z,995.13
2023-05-02T03:45:02.733Z,995.13
2023-05-02T03:46:02.790Z,995.14
2023-05-02T03:47:02.773Z,995.12
2023-05-02T03:48:02.816Z,995.13
2023-05-02T03:49:02.763Z,995.17
2023-05-02T03:50:02.877Z,995.20
2023-05-02T03:51:02.710Z,995.15
2023-05-02T03:52:02.702Z,995.20
2023-05-02T03:53:02.715Z,995.16
2023-05-02T03:54:02.765Z,995.24
2023-05-02T03:55:02.676Z,995.19
2023-05-02T03:56:03.700Z,995.20
2023-05-02T03:57:02.665Z,995.26
2023-05-02T03:58:02.785Z,995.31
2023-05-02T03:59:02.713Z,995.25
2023-05-02T04:00:02.801Z,995.23
2023-05-02T04:01:02.691Z,995.23
2023-05-02T04:02:02.730Z,995.34
2023-05-02T04:03:02.676Z,995.34
2023-05-02T04:04:02.678Z,995.30
2023-05-02T04:05:02.683Z,995.36
2023-05-02T04:06:02.656Z,995.40
2023-05-02T04:07:02.627Z,995.46
2023-05-02T04:08:02.593Z,995.36
2023-05-02T04:09:02.621Z,995.48
2023-05-02T04:10:02.814Z,995.45
2023-05-02T04:11:02.614Z,995.51
2023-05-02T04:12:02.592Z,995.43
2023-05-02T04:13:02.584Z,995.47
2023-05-02T04:14:02.549Z,995.50
2023-05-02T04:15:02.537Z,995.52
2023-05-02T04:16:02.548Z,995.55
2023-05-02T04:17:02.624Z,995.49
2023-05-02T04:18:02.563Z,995.52
2023-05-02T04:19:02.541Z,995.56
2023-05-02T04:20:04.843Z,995.54
2023-05-02T04:21:03.568Z,995.55
2023-05-02T04:22:02.524Z,995.59
2023-05-02T04:23:02.505Z,995.61
2023-05-02T04:24:02.516Z,995.60
2023-05-02T04:25:02.525Z,995.68
2023-05-02T04:26:02.535Z,995.63
2023-05-02T04:27:02.504Z,995.64
2023-05-02T04:28:02.484Z,995.64
2023-05-02T04:29:02.458Z,995.63
2023-05-02T04:30:02.692Z,995.64
2023-05-02T04:31:02.599Z,995.59
2023-05-02T04:32:02.480Z,995.67
2023-05-02T04:33:02.546Z,995.66
2023-05-02T04:34:02.442Z,995.61
2023-05-02T04:35:02.486Z,995.65
2023-05-02T04:36:02.414Z,995.68
2023-05-02T04:37:02.418Z,995.76
2023-05-02T04:38:02.433Z,995.72
2023-05-02T04:39:02.401Z,995.78
2023-05-02T04:40:02.488Z,995.72
2023-05-02T04:41:09.162Z,995.78
2023-05-02T04:42:03.411Z,995.73
2023-05-02T04:43:02.425Z,995.79
2023-05-02T04:44:02.403Z,995.80
2023-05-02T04:45:02.369Z,995.83
2023-05-02T04:46:02.415Z,995.86
2023-05-02T04:47:02.397Z,995.86
2023-05-02T04:48:02.474Z,995.88
2023-05-02T04:49:02.321Z,995.88
2023-05-02T04:50:02.561Z,995.90
2023-05-02T04:51:02.343Z,995.89
2023-05-02T04:52:02.372Z,995.94
2023-05-02T04:53:02.307Z,995.92
2023-05-02T04:54:02.321Z,995.92
2023-05-02T04:55:02.315Z,995.96
2023-05-02T04:56:02.461Z,995.97
2023-05-02T04:57:02.298Z,996.00
2023-05-02T04:58:02.268Z,995.95
2023-05-02T04:59:02.300Z,996.03
2023-05-02T05:00:02.520Z,996.04
2023-05-02T05:01:02.266Z,996.01
2023-05-02T05:02:02.417Z,996.04
2023-05-02T05:03:02.368Z,996.08
2023-05-02T05:04:02.299Z,996.05
2023-05-02T05:05:02.280Z,996.06
2023-05-02T05:06:02.222Z,996.08
2023-05-02T05:07:02.315Z,996.10
2023-05-02T05:08:02.206Z,996.19
2023-05-02T05:09:02.221Z,996.19
2023-05-02T05:10:02.530Z,996.17
2023-05-02T05:11:02.177Z,996.24
2023-05-02T05:12:02.194Z,996.24
2023-05-02T05:13:02.162Z,996.27
2023-05-02T05:14:02.158Z,996.33
2023-05-02T05:15:02.243Z,996.27
2023-05-02T05:16:02.269Z,996.30
2023-05-02T05:17:02.123Z,996.29
2023-05-02T05:18:02.218Z,996.33
2023-05-02T05:19:02.129Z,996.33
2023-05-02T05:20:02.533Z,996.35
2023-05-02T05:21:02.108Z,996.32
2023-05-02T05:22:02.117Z,996.38
2023-05-02T05:23:02.081Z,996.42
2023-05-02T05:24:02.111Z,996.35
2023-05-02T05:25:02.094Z,996.43
2023-05-02T05:26:02.084Z,996.46
2023-05-02T05:27:02.079Z,996.45
2023-05-02T05:28:02.044Z,996.43
2023-05-02T05:29:02.077Z,996.41
2023-05-02T05:30:02.323Z,996.43
2023-05-02T05:31:02.053Z,996.41
2023-05-02T05:32:02.109Z,996.49
2023-05-02T05:33:02.143Z,996.43
2023-05-02T05:34:02.061Z,996.49
2023-05-02T05:35:02.051Z,996.58
2023-05-02T05:36:01.997Z,996.61
2023-05-02T05:37:02.000Z,996.61
2023-05-02T05:38:02.022Z,996.59
2023-05-02T05:39:02.006Z,996.65
2023-05-02T05:40:02.476Z,996.62
2023-05-02T05:41:01.975Z,996.64
2023-05-02T05:42:02.014Z,996.68
2023-05-02T05:43:01.966Z,996.63
2023-05-02T05:44:01.983Z,996.67
2023-05-02T05:45:02.055Z,996.74
2023-05-02T05:46:01.985Z,996.70
2023-05-02T05:47:01.938Z,996.79
2023-05-02T05:48:02.086Z,996.76
2023-05-02T05:49:01.966Z,996.77
2023-05-02T05:50:02.271Z,996.81
2023-05-02T05:51:01.976Z,996.76
2023-05-02T05:52:01.957Z,996.78
2023-05-02T05:53:01.960Z,996.83
2023-05-02T05:54:01.907Z,996.87
2023-05-02T05:55:02.054Z,996.81
2023-05-02T05:56:01.870Z,996.82
2023-05-02T05:57:01.906Z,996.84
2023-05-02T05:58:01.897Z,996.88
2023-05-02T05:59:01.902Z,996.91
2023-05-02T06:00:02.217Z,996.88
2023-05-02T06:01:01.934Z,996.89
2023-05-02T06:02:01.870Z,996.91
2023-05-02T06:03:02.161Z,996.90
2023-05-02T06:04:01.890Z,996.97
2023-05-02T06:05:01.998Z,996.92
2023-05-02T06:06:01.892Z,996.95
2023-05-02T06:07:01.836Z,996.97
2023-05-02T06:08:01.795Z,996.98
2023-05-02T06:09:01.793Z,996.99
2023-05-02T06:10:02.097Z,997.02
2023-05-02T06:11:01.761Z,997.02
2023-05-02T06:12:01.803Z,997.04
2023-05-02T06:13:01.749Z,997.09
2023-05-02T06:14:01.747Z,997.05
2023-05-02T06:15:01.778Z,997.08
2023-05-02T06:16:01.749Z,997.13
2023-05-02T06:17:01.722Z,997.09
2023-05-02T06:18:01.775Z,997.11
2023-05-02T06:19:01.763Z,997.07
2023-05-02T06:20:02.000Z,997.18
2023-05-02T06:21:01.710Z,997.11
2023-05-02T06:22:02.689Z,997.18
2023-05-02T06:23:01.684Z,997.19
2023-05-02T06:24:01.692Z,997.22
2023-05-02T06:25:01.664Z,997.26
2023-05-02T06:26:01.655Z,997.21
2023-05-02T06:27:01.655Z,997.25
2023-05-02T06:28:01.701Z,997.25
2023-05-02T06:29:01.647Z,997.23
2023-05-02T06:30:02.966Z,997.23
2023-05-02T06:31:01.760Z,997.25
2023-05-02T06:32:01.711Z,997.24
2023-05-02T06:33:01.689Z,997.30
2023-05-02T06:34:01.617Z,997.29
2023-05-02T06:35:01.584Z,997.27
2023-05-02T06:36:02.162Z,997.31
2023-05-02T06:37:02.565Z,997.26
2023-05-02T06:38:01.632Z,997.24
2023-05-02T06:39:01.598Z,997.23
2023-05-02T06:40:01.892Z,997.24
2023-05-02T06:41:01.569Z,997.26
2023-05-02T06:42:01.550Z,997.32
2023-05-02T06:43:01.633Z,997.28
2023-05-02T06:44:01.544Z,997.36
2023-05-02T06:45:01.544Z,997.29
2023-05-02T06:46:01.533Z,997.32
2023-05-02T06:47:01.641Z,997.34
2023-05-02T06:48:01.543Z,997.38
2023-05-02T06:49:01.542Z,997.36
2023-05-02T06:50:01.718Z,997.40
2023-05-02T06:51:01.500Z,997.42
2023-05-02T06:52:01.479Z,997.41
2023-05-02T06:53:01.499Z,997.43
2023-05-02T06:54:01.489Z,997.44
2023-05-02T06:55:01.475Z,997.49
2023-05-02T06:56:01.485Z,997.52
2023-05-02T06:57:01.468Z,997.52
2023-05-02T06:58:01.419Z,997.42
2023-05-02T06:59:01.429Z,997.55
2023-05-02T07:00:02.005Z,997.54
2023-05-02T07:01:01.509Z,997.50
2023-05-02T07:02:02.947Z,997.49
2023-05-02T07:03:01.463Z,997.53
2023-05-02T07:04:01.460Z,997.63
2023-05-02T07:05:01.392Z,997.61
2023-05-02T07:06:01.444Z,997.61
2023-05-02T07:07:01.461Z,997.57
2023-05-02T07:08:01.360Z,997.55
2023-05-02T07:09:01.407Z,997.59
2023-05-02T07:10:01.632Z,997.66
2023-05-02T07:11:01.421Z,997.61
2023-05-02T07:12:01.340Z,997.64
2023-05-02T07:13:01.351Z,997.63
2023-05-02T07:14:01.326Z,997.65
2023-05-02T07:15:01.359Z,997.72
2023-05-02T07:16:01.373Z,997.71
2023-05-02T07:17:01.351Z,997.68
2023-05-02T07:18:01.329Z,997.71
2023-05-02T07:19:01.283Z,997.71
2023-05-02T07:20:01.433Z,997.68
2023-05-02T07:21:01.304Z,997.70
2023-05-02T07:22:01.318Z,997.64
2023-05-02T07:23:01.268Z,997.68
2023-05-02T07:24:01.233Z,997.70
2023-05-02T07:25:02.328Z,997.77
2023-05-02T07:26:01.221Z,997.75
2023-05-02T07:27:01.223Z,997.74
2023-05-02T07:28:01.197Z,997.73
2023-05-02T07:29:01.285Z,997.80
2023-05-02T07:30:01.642Z,997.81
2023-05-02T07:31:01.190Z,997.80
2023-05-02T07:32:01.306Z,997.91
2023-05-02T07:33:01.206Z,997.89
2023-05-02T07:34:01.238Z,997.87
2023-05-02T07:35:01.166Z,997.89
2023-05-02T07:36:01.169Z,997.91
2023-05-02T07:37:01.183Z,997.91
2023-05-02T07:38:01.125Z,997.96
2023-05-02T07:39:01.103Z,997.96
2023-05-02T07:40:01.492Z,997.97
2023-05-02T07:41:01.140Z,997.99
2023-05-02T07:42:01.157Z,997.96
2023-05-02T07:43:01.085Z,997.99
2023-05-02T07:44:01.087Z,998.00
2023-05-02T07:45:01.188Z,998.02
2023-05-02T07:46:01.096Z,998.02
2023-05-02T07:47:01.115Z,998.08
2023-05-02T07:48:01.094Z,997.97
2023-05-02T07:49:01.051Z,998.03
2023-05-02T07:50:01.331Z,997.92
2023-05-02T07:51:01.084Z,997.99
2023-05-02T07:52:01.123Z,998.01
2023-05-02T07:53:01.043Z,998.03
2023-05-02T07:54:01.025Z,998.03
2023-05-02T07:55:01.042Z,998.06
2023-05-02T07:56:01.028Z,998.05
2023-05-02T07:57:00.973Z,998.04
2023-05-02T07:58:01.085Z,998.02
2023-05-02T07:59:00.964Z,998.03
2023-05-02T08:00:01.294Z,998.06
2023-05-02T08:01:00.948Z,998.03
2023-05-02T08:02:00.975Z,998.07
2023-05-02T08:03:01.108Z,998.10
2023-05-02T08:04:01.103Z,998.10
2023-05-02T08:05:00.938Z,998.09
2023-05-02T08:06:01.998Z,998.10
2023-05-02T08:07:00.911Z,998.15
2023-05-02T08:08:00.954Z,998.16
2023-05-02T08:09:00.905Z,998.10
2023-05-02T08:10:01.064Z,998.05
2023-05-02T08:11:00.885Z,998.10
2023-05-02T08:12:00.916Z,998.04
2023-05-02T08:13:00.900Z,998.13
2023-05-02T08:14:00.966Z,998.15
2023-05-02T08:15:00.888Z,998.11
2023-05-02T08:16:00.915Z,998.15
2023-05-02T08:17:00.829Z,998.14
2023-05-02T08:18:00.846Z,998.15
2023-05-02T08:19:00.812Z,998.21
2023-05-02T08:20:02.289Z,998.19
2023-05-02T08:21:00.815Z,998.17
2023-05-02T08:22:00.846Z,998.26
2023-05-02T08:23:00.800Z,998.24
2023-05-02T08:24:00.802Z,998.29
2023-05-02T08:25:00.793Z,998.25
2023-05-02T08:26:00.785Z,998.24
2023-05-02T08:27:00.751Z,998.31
2023-05-02T08:28:00.733Z,998.34
2023-05-02T08:29:00.734Z,998.24
2023-05-02T08:30:01.418Z,998.29
2023-05-02T08:31:01.770Z,998.26
2023-05-02T08:32:00.775Z,998.24
2023-05-02T08:33:00.816Z,998.27
2023-05-02T08:34:00.710Z,998.30
2023-05-02T08:35:00.711Z,998.25
2023-05-02T08:36:00.715Z,998.30
2023-05-02T08:37:00.766Z,998.34
2023-05-02T08:38:00.685Z,998.35
2023-05-02T08:39:00.678Z,998.34
2023-05-02T08:40:00.891Z,998.36
2023-05-02T08:41:00.717Z,998.32
2023-05-02T08:42:00.661Z,998.38
2023-05-02T08:43:00.653Z,998.38
2023-05-02T08:44:00.651Z,998.35
2023-05-02T08:45:00.633Z,998.40
2023-05-02T08:46:00.640Z,998.40
2023-05-02T08:47:00.710Z,998.39
2023-05-02T08:48:00.692Z,998.41
2023-05-02T08:49:00.591Z,998.38
2023-05-02T08:50:00.788Z,998.42
2023-05-02T08:51:00.576Z,998.38
2023-05-02T08:52:00.622Z,998.41
2023-05-02T08:53:00.562Z,998.46
2023-05-02T08:54:00.550Z,998.38
2023-05-02T08:55:00.840Z,998.42
2023-05-02T08:56:00.544Z,998.43
2023-05-02T08:57:00.579Z,998.45
2023-05-02T08:58:00.519Z,998.47
2023-05-02T08:59:00.540Z,998.45
2023-05-02T09:00:00.537Z,998.50
2023-05-02T09:01:00.513Z,998.52
2023-05-02T09:02:00.524Z,998.53
2023-05-02T09:03:00.493Z,998.57
2023-05-02T09:04:00.550Z,998.51
2023-05-02T09:05:00.800Z,998.52
2023-05-02T09:06:00.483Z,998.55
2023-05-02T09:07:00.455Z,998.53
2023-05-02T09:08:00.455Z,998.55
2023-05-02T09:09:00.493Z,998.59
2023-05-02T09:10:00.446Z,998.55
2023-05-02T09:11:00.407Z,998.60
2023-05-02T09:12:00.447Z,998.57
2023-05-02T09:13:00.437Z,998.58
2023-05-02T09:14:00.422Z,998.58
2023-05-02T09:15:00.798Z,998.56
2023-05-02T09:16:00.393Z,998.57
2023-05-02T09:17:00.465Z,998.58
2023-05-02T09:18:00.392Z,998.57
2023-05-02T09:19:00.411Z,998.53
2023-05-02T09:20:00.363Z,998.57
2023-05-02T09:21:00.385Z,998.59
2023-05-02T09:22:00.343Z,998.57
2023-05-02T09:23:00.333Z,998.62
2023-05-02T09:24:00.383Z,998.59
2023-05-02T09:25:00.822Z,998.57
2023-05-02T09:26:00.314Z,998.51
2023-05-02T09:27:00.318Z,998.57
2023-05-02T09:28:00.294Z,998.60
2023-05-02T09:29:00.307Z,998.62
2023-05-02T09:30:00.334Z,998.64
2023-05-02T09:31:00.334Z,998.68
2023-05-02T09:32:00.295Z,998.74
2023-05-02T09:33:00.303Z,998.79
2023-05-02T09:34:00.270Z,998.78
2023-05-02T09:35:00.428Z,998.80
2023-05-02T09:36:00.260Z,998.78
2023-05-02T09:37:00.247Z,998.83
2023-05-02T09:38:00.273Z,998.82
2023-05-02T09:39:00.237Z,998.88
2023-05-02T09:40:01.202Z,998.80
2023-05-02T09:41:00.224Z,998.89
2023-05-02T09:42:00.187Z,998.86
2023-05-02T09:43:00.224Z,998.97
2023-05-02T09:44:00.173Z,998.95
2023-05-02T09:45:00.691Z,998.94
2023-05-02T09:46:00.192Z,998.97
2023-05-02T09:47:00.191Z,998.99
2023-05-02T09:48:00.264Z,999.00
2023-05-02T09:49:00.147Z,999.00
2023-05-02T09:50:00.135Z,998.99
2023-05-02T09:51:00.115Z,999.05
2023-05-02T09:52:00.138Z,999.12
2023-05-02T09:53:00.189Z,999.07
2023-05-02T09:54:00.111Z,999.13
2023-05-02T09:55:00.289Z,999.13
2023-05-02T09:56:00.127Z,999.14
2023-05-02T09:57:00.123Z,999.12
2023-05-02T09:58:00.114Z,999.19
2023-05-02T09:59:00.180Z,999.19
2023-05-02T10:00:00.050Z,999.23
2023-05-02T10:01:00.050Z,999.19
2023-05-02T10:02:00.184Z,999.21
2023-05-02T10:03:00.060Z,999.32
2023-05-02T10:04:00.055Z,999.29
2023-05-02T10:05:00.131Z,999.34
2023-05-02T10:06:00.060Z,999.35
2023-05-02T10:07:00.087Z,999.31
2023-05-02T10:08:00.022Z,999.36
2023-05-02T10:08:59.975Z,999.32
2023-05-02T10:10:00.025Z,999.31
2023-05-02T10:10:59.990Z,999.32
2023-05-02T10:11:59.937Z,999.31
2023-05-02T10:13:00.956Z,999.33
2023-05-02T10:13:59.968Z,999.28
2023-05-02T10:15:00.257Z,999.30
2023-05-02T10:15:59.974Z,999.29
2023-05-02T10:16:59.937Z,999.34
2023-05-02T10:17:59.968Z,999.30
2023-05-02T10:18:59.971Z,999.31
2023-05-02T10:20:00.072Z,999.32
2023-05-02T10:20:59.907Z,999.36
2023-05-02T10:21:59.911Z,999.35
2023-05-02T10:22:59.880Z,999.36
2023-05-02T10:23:59.916Z,999.32
2023-05-02T10:25:00.188Z,999.32
2023-05-02T10:26:00.338Z,999.32
2023-05-02T10:27:00.878Z,999.33
2023-05-02T10:27:59.839Z,999.38
2023-05-02T10:28:59.817Z,999.37
2023-05-02T10:29:59.825Z,999.43
2023-05-02T10:30:59.872Z,999.34
2023-05-02T10:31:59.874Z,999.40
2023-05-02T10:32:59.809Z,999.37
2023-05-02T10:33:59.806Z,999.36
2023-05-02T10:34:59.865Z,999.39
2023-05-02T10:35:59.817Z,999.35
2023-05-02T10:36:59.772Z,999.37
2023-05-02T10:37:59.776Z,999.41
2023-05-02T10:38:59.771Z,999.39
2023-05-02T10:39:59.751Z,999.40
2023-05-02T10:40:59.777Z,999.40
2023-05-02T10:41:59.800Z,999.44
2023-05-02T10:42:59.726Z,999.43
2023-05-02T10:43:59.730Z,999.39
2023-05-02T10:45:00.965Z,999.44
2023-05-02T10:45:59.690Z,999.43
2023-05-02T10:46:59.856Z,999.37
2023-05-02T10:47:59.782Z,999.46
2023-05-02T10:48:59.749Z,999.38
2023-05-02T10:49:59.671Z,999.37
2023-05-02T10:50:59.670Z,999.40
2023-05-02T10:51:59.698Z,999.36
2023-05-02T10:52:59.643Z,999.36
2023-05-02T10:53:59.658Z,999.34
2023-05-02T10:54:59.875Z,999.35
2023-05-02T10:55:59.674Z,999.34
2023-05-02T10:56:59.701Z,999.36
2023-05-02T10:57:59.642Z,999.33
2023-05-02T10:58:59.622Z,999.33
2023-05-02T10:59:59.595Z,999.33
2023-05-02T11:00:59.647Z,999.34
2023-05-02T11:01:59.612Z,999.35
2023-05-02T11:02:59.832Z,999.32
2023-05-02T11:03:59.644Z,999.34
2023-05-02T11:05:00.164Z,999.32
2023-05-02T11:05:59.593Z,999.34
2023-05-02T11:06:59.572Z,999.32
2023-05-02T11:07:59.630Z,999.35
2023-05-02T11:08:59.592Z,999.30
2023-05-02T11:09:59.538Z,999.36
2023-05-02T11:10:59.595Z,999.28
2023-05-02T11:11:59.525Z,999.33
2023-05-02T11:13:00.579Z,999.33
2023-05-02T11:13:59.525Z,999.28
2023-05-02T11:14:59.756Z,999.32
2023-05-02T11:15:59.553Z,999.30
2023-05-02T11:16:59.565Z,999.30
2023-05-02T11:17:59.588Z,999.32
2023-05-02T11:18:59.546Z,999.31
2023-05-02T11:19:59.506Z,999.30
2023-05-02T11:20:59.453Z,999.32
2023-05-02T11:21:59.501Z,999.30
2023-05-02T11:22:59.459Z,999.29
2023-05-02T11:23:59.495Z,999.35
2023-05-02T11:24:59.721Z,999.35
2023-05-02T11:25:59.432Z,999.35
2023-05-02T11:26:59.455Z,999.39
2023-05-02T11:27:59.440Z,999.36
2023-05-02T11:28:59.381Z,999.39
2023-05-02T11:29:59.607Z,999.47
2023-05-02T11:30:59.375Z,999.40
2023-05-02T11:31:59.581Z,999.46
2023-05-02T11:32:59.477Z,999.44
2023-05-02T11:33:59.345Z,999.48
2023-05-02T11:34:59.497Z,999.48
2023-05-02T11:35:59.366Z,999.46
2023-05-02T11:36:59.343Z,999.53
2023-05-02T11:37:59.369Z,999.54
2023-05-02T11:38:59.303Z,999.54
2023-05-02T11:39:59.305Z,999.56
2023-05-02T11:40:59.362Z,999.54
2023-05-02T11:41:59.314Z,999.50
2023-05-02T11:42:59.289Z,999.57
2023-05-02T11:43:59.282Z,999.57
2023-05-02T11:44:59.544Z,999.50
2023-05-02T11:45:59.421Z,999.54
2023-05-02T11:46:59.278Z,999.48
2023-05-02T11:47:59.278Z,999.54
2023-05-02T11:48:59.425Z,999.55
2023-05-02T11:49:59.276Z,999.52
2023-05-02T11:50:59.253Z,999.55
2023-05-02T11:51:59.257Z,999.60
2023-05-02T11:52:59.254Z,999.59
2023-05-02T11:53:59.231Z,999.57
2023-05-02T11:54:59.545Z,999.63
2023-05-02T11:55:59.205Z,999.67
2023-05-02T11:56:59.190Z,999.66
2023-05-02T11:57:59.161Z,999.72
2023-05-02T11:58:59.221Z,999.73
2023-05-02T11:59:59.157Z,999.73
2023-05-02T12:00:59.154Z,999.72
2023-05-02T12:01:59.136Z,999.69
2023-05-02T12:02:59.419Z,999.76
2023-05-02T12:03:59.209Z,999.72
2023-05-02T12:04:59.247Z,999.79
2023-05-02T12:05:59.241Z,999.80
2023-05-02T12:06:59.158Z,999.80
2023-05-02T12:07:59.107Z,999.83
2023-05-02T12:08:59.149Z,999.87
2023-05-02T12:09:59.093Z,999.88
2023-05-02T12:10:59.143Z,999.90
2023-05-02T12:11:59.085Z,999.93
2023-05-02T12:12:59.062Z,999.96
2023-05-02T12:13:59.096Z,999.95
2023-05-02T12:14:59.324Z,999.93
2023-05-02T12:15:59.077Z,1000.02
2023-05-02T12:16:59.063Z,999.98
2023-05-02T12:17:59.085Z,999.99
2023-05-02T12:18:59.037Z,1000.09
2023-05-02T12:19:59.030Z,1000.11
2023-05-02T12:20:59.008Z,1000.11
2023-05-02T12:21:58.989Z,1000.11
2023-05-02T12:22:58.994Z,1000.16
2023-05-02T12:23:59.025Z,1000.20
2023-05-02T12:24:59.440Z,1000.18
2023-05-02T12:25:59.052Z,1000.18
2023-05-02T12:26:58.959Z,1000.25
2023-05-02T12:27:59.043Z,1000.21